KMTP/MTP METAR and TAF weather

Enter ICAO airport designator
Station Type Date Time Source
KMTP METAR 2023/11/28 16:54 UTC NOAA

KMTP 281654Z AUTO 28011G21KT 04/M07 A2977 RMK AO1 SLP081 T00441067


Station Type Date Time Source
KMTP Decoded METAR 2023/11/28 16:54 UTC NOAA

MONTAUK AIRPORT, NY, United States (KMTP) 41-04N 071-55W 2M
Nov 28, 2023 - 11:54 AM EST / 2023.11.28 1654 UTC
Wind: from the W (280 degrees) at 13 MPH (11 KT) gusting to 24 MPH (21 KT):0
Temperature: 39.9 F (4.4 C)
Dew Point: 19.9 F (-6.7 C)
Relative Humidity: 44%
Pressure (altimeter): 29.77 in. Hg (1008 hPa)
ob: KMTP 281654Z AUTO 28011G21KT 04/M07 A2977 RMK AO1 SLP081 T00441067
cycle: 17

Station Type Date Time Source
KMTP TAF UTC NOAA

Error!

Example: see airport list